Terminal Aerodrome Forecast
Issued by NWS Cleveland, OH

Home | Current Version | Previous Version | Graphics & Text | Print | Product List | Glossary Off
Versions: 1 2 3 4 5 6 7 8 9 10 11 12 13 14 15 16 17 18 19 20

000
FTUS41 KCLE 240531
TAFYNG
TAF
KYNG 240531Z 2406/2506 23003KT P6SM FEW012 BKN100
      TEMPO 2409/2413 4SM BR BKN012
     FM241300 27007KT 6SM BR VCSH BKN012
     FM241800 30012KT P6SM VCSH BKN025
     FM250500 35005KT P6SM SCT020=

USA.gov is the U.S. government's official web portal to all federal, state and local government web resources and services.